createdAt,value
2019-05-02T00:04:57.089Z,7.43
2019-05-02T00:10:03.496Z,8.12
2019-05-02T00:15:09.845Z,7.78
2019-05-02T00:20:21.193Z,6.40
2019-05-02T00:25:22.527Z,7.47
2019-05-02T00:30:29.970Z,7.98
2019-05-02T00:35:30.687Z,10.62
2019-05-02T00:40:37.070Z,9.57
2019-05-02T00:45:43.364Z,11.03
2019-05-02T00:50:52.205Z,10.44
2019-05-02T00:55:58.770Z,11.09
2019-05-02T01:01:05.156Z,11.95
2019-05-02T01:06:14.370Z,13.23
2019-05-02T01:11:12.140Z,14.18
2019-05-02T01:16:19.176Z,15.38
2019-05-02T01:21:26.596Z,14.82
2019-05-02T01:26:33.288Z,15.07
2019-05-02T01:31:40.431Z,15.84
2019-05-02T01:36:46.803Z,15.93
2019-05-02T01:41:55.466Z,14.88
2019-05-02T01:47:02.186Z,16.27
2019-05-02T01:52:08.486Z,17.93
2019-05-02T01:57:14.784Z,16.00
2019-05-02T02:02:21.372Z,16.97
2019-05-02T02:07:28.081Z,16.67
2019-05-02T02:12:34.760Z,17.46
2019-05-02T02:17:41.115Z,17.25
2019-05-02T02:22:47.413Z,18.47
2019-05-02T02:27:54.992Z,19.15
2019-05-02T02:33:00.613Z,20.36
2019-05-02T02:38:01.614Z,19.05
2019-05-02T02:43:30.292Z,20.72
2019-05-02T02:48:13.718Z,21.88
2019-05-02T02:53:24.165Z,20.28
2019-05-02T02:58:22.251Z,22.46
2019-05-02T03:03:30.596Z,21.73
2019-05-02T03:08:31.037Z,24.31
2019-05-02T03:13:51.055Z,26.29
2019-05-02T03:18:43.979Z,26.81
2019-05-02T03:24:01.796Z,28.90
2019-05-02T03:28:58.380Z,27.61
2019-05-02T03:34:00.847Z,28.39
2019-05-02T03:38:57.762Z,28.91
2019-05-02T03:44:11.053Z,29.21
2019-05-02T03:49:09.716Z,28.92
2019-05-02T03:54:19.878Z,28.13
2019-05-02T03:59:16.738Z,31.62
2019-05-02T04:04:23.016Z,28.01
2019-05-02T04:09:32.099Z,25.83
2019-05-02T04:14:37.877Z,26.43
2019-05-02T04:19:36.442Z,29.26
2019-05-02T04:24:47.961Z,27.60
2019-05-02T04:29:49.191Z,28.94
2019-05-02T04:34:57.901Z,30.59
2019-05-02T04:40:08.360Z,26.34
2019-05-02T04:45:21.691Z,24.48
2019-05-02T04:50:18.569Z,28.37
2019-05-02T04:55:28.176Z,26.56
2019-05-02T05:00:28.698Z,27.88
2019-05-02T05:05:40.007Z,24.54
2019-05-02T05:10:41.514Z,26.63
2019-05-02T05:15:48.568Z,28.60
2019-05-02T05:20:52.853Z,29.69
2019-05-02T05:25:55.568Z,29.21
2019-05-02T05:30:58.287Z,27.31
2019-05-02T05:36:04.933Z,27.87
2019-05-02T05:41:13.220Z,27.31
2019-05-02T05:46:13.230Z,27.16
2019-05-02T05:51:20.732Z,26.28
2019-05-02T05:56:27.982Z,27.78
2019-05-02T06:01:36.396Z,29.69
2019-05-02T06:06:34.715Z,27.71
2019-05-02T06:11:41.626Z,25.25
2019-05-02T06:16:51.773Z,26.19
2019-05-02T06:21:51.213Z,25.09
2019-05-02T06:26:57.520Z,24.54
2019-05-02T06:32:04.529Z,26.15
2019-05-02T06:37:13.694Z,26.82
2019-05-02T06:42:11.894Z,23.76
2019-05-02T06:47:18.321Z,22.78
2019-05-02T06:52:27.168Z,24.46
2019-05-02T06:57:28.556Z,26.76
2019-05-02T07:02:35.386Z,27.38
2019-05-02T07:07:41.754Z,25.74
2019-05-02T07:12:51.292Z,22.75
2019-05-02T07:17:53.288Z,25.17
2019-05-02T07:22:59.964Z,26.27
2019-05-02T07:28:09.390Z,26.87
2019-05-02T07:33:07.012Z,28.88
2019-05-02T07:38:13.408Z,25.67
2019-05-02T07:43:22.174Z,24.62
2019-05-02T07:48:28.764Z,23.93
2019-05-02T07:53:35.073Z,25.01
2019-05-02T07:58:46.936Z,29.84
2019-05-02T08:03:44.701Z,28.10
2019-05-02T08:08:51.141Z,29.13
2019-05-02T08:14:00.583Z,29.34
2019-05-02T08:19:07.063Z,29.64
2019-05-02T08:24:13.449Z,29.14
2019-05-02T08:29:23.286Z,30.48
2019-05-02T08:34:25.014Z,28.41
2019-05-02T08:39:33.711Z,31.02
2019-05-02T08:44:31.672Z,30.97
2019-05-02T08:49:37.892Z,29.87
2019-05-02T08:54:44.397Z,28.98
2019-05-02T08:59:50.625Z,27.03
2019-05-02T09:04:58.763Z,26.12
2019-05-02T09:10:08.008Z,26.17
2019-05-02T09:15:14.426Z,25.18
2019-05-02T09:20:23.463Z,25.60
2019-05-02T09:25:32.268Z,25.58
2019-05-02T09:30:38.985Z,22.65
2019-05-02T09:35:45.988Z,25.23
2019-05-02T09:40:55.927Z,24.49
2019-05-02T09:45:52.578Z,24.09
2019-05-02T09:51:04.559Z,25.14
2019-05-02T09:56:05.352Z,26.09
2019-05-02T10:01:11.960Z,24.27
2019-05-02T10:06:18.413Z,24.81
2019-05-02T10:11:26.280Z,23.38
2019-05-02T10:16:33.568Z,21.39
2019-05-02T10:21:42.201Z,22.52
2019-05-02T10:26:48.749Z,22.69
2019-05-02T10:31:55.169Z,26.49
2019-05-02T10:37:03.130Z,26.46
2019-05-02T10:42:09.798Z,23.61
2019-05-02T10:47:16.327Z,24.53
2019-05-02T10:52:29.777Z,24.24
2019-05-02T10:57:26.630Z,23.53
2019-05-02T11:02:32.984Z,26.74
2019-05-02T11:07:39.436Z,26.51
2019-05-02T11:12:47.139Z,26.54
2019-05-02T11:17:53.879Z,27.80
2019-05-02T11:23:02.088Z,22.75
2019-05-02T11:28:08.871Z,24.88
2019-05-02T11:33:15.252Z,22.86
2019-05-02T11:38:36.204Z,20.61
2019-05-02T11:43:28.169Z,22.60
2019-05-02T11:48:34.838Z,22.99
2019-05-02T11:53:42.009Z,22.30
2019-05-02T11:58:50.232Z,21.93
2019-05-02T12:03:56.899Z,21.66
2019-05-02T12:09:03.428Z,19.87
2019-05-02T12:14:09.627Z,20.24
2019-05-02T12:19:16.180Z,20.52
2019-05-02T12:24:24.458Z,20.24
2019-05-02T12:29:33.923Z,21.98
2019-05-02T12:35:36.899Z,22.57
2019-05-02T12:39:45.528Z,24.95
2019-05-02T12:44:53.285Z,24.88
2019-05-02T12:49:59.803Z,26.49
2019-05-02T12:55:06.106Z,25.05
2019-05-02T13:00:12.924Z,24.07
2019-05-02T13:05:19.718Z,22.39
2019-05-02T13:10:27.648Z,22.65
2019-05-02T13:15:33.900Z,20.45
2019-05-02T13:20:41.750Z,21.36
2019-05-02T13:25:48.184Z,22.54
2019-05-02T13:30:54.621Z,18.40
2019-05-02T13:36:02.529Z,18.98
2019-05-02T13:41:11.457Z,17.71
2019-05-02T13:46:18.237Z,18.81
2019-05-02T13:51:24.846Z,15.09
2019-05-02T13:56:32.637Z,12.61
2019-05-02T14:01:42.360Z,11.36
2019-05-02T14:06:48.856Z,11.00
2019-05-02T14:11:56.102Z,11.35
2019-05-02T14:17:03.162Z,11.89
2019-05-02T14:22:09.640Z,11.65
2019-05-02T14:27:17.327Z,12.69
2019-05-02T14:32:26.442Z,10.58
2019-05-02T14:37:33.906Z,11.18
2019-05-02T14:42:41.881Z,13.16
2019-05-02T14:47:49.634Z,11.49
2019-05-02T14:52:51.687Z,10.90
2019-05-02T14:58:04.093Z,10.43
2019-05-02T15:03:03.388Z,10.09
2019-05-02T15:08:11.765Z,9.35
2019-05-02T15:13:18.889Z,11.69
2019-05-02T15:18:26.802Z,7.31
2019-05-02T15:23:33.135Z,7.99
2019-05-02T15:28:40.047Z,8.87
2019-05-02T15:33:46.573Z,8.94
2019-05-02T15:38:53.657Z,10.05
2019-05-02T15:44:01.858Z,11.93
2019-05-02T15:49:09.282Z,8.67
2019-05-02T15:54:18.835Z,7.66
2019-05-02T15:59:16.699Z,7.71
2019-05-02T16:04:25.663Z,12.17
2019-05-02T16:09:32.988Z,10.49
2019-05-02T16:14:39.552Z,7.96
2019-05-02T16:19:46.102Z,2.63
2019-05-02T16:24:53.329Z,2.27
2019-05-02T16:30:06.087Z,3.39
2019-05-02T16:35:12.162Z,2.64
2019-05-02T16:40:09.012Z,2.28
2019-05-02T16:45:15.808Z,2.16
2019-05-02T16:50:22.899Z,2.55
2019-05-02T16:55:29.747Z,2.53
2019-05-02T17:00:36.931Z,3.63
2019-05-02T17:05:39.392Z,6.17
2019-05-02T17:10:42.091Z,3.68
2019-05-02T17:15:49.181Z,5.12
2019-05-02T17:20:56.970Z,4.87
2019-05-02T17:26:03.940Z,4.54
2019-05-02T17:31:19.107Z,4.97
2019-05-02T17:36:34.130Z,5.79
2019-05-02T17:51:37.700Z,7.99
2019-05-02T17:56:44.319Z,6.12
2019-05-02T18:01:52.452Z,9.23
2019-05-02T18:12:07.270Z,8.39
2019-05-02T18:27:17.262Z,7.85
2019-05-02T18:37:37.184Z,7.28
2019-05-02T18:47:44.684Z,9.78
2019-05-02T18:52:52.802Z,8.33
2019-05-02T18:58:03.787Z,7.70
2019-05-02T19:03:02.881Z,8.89
2019-05-02T19:08:09.576Z,11.16
2019-05-02T19:13:16.100Z,9.47
2019-05-02T19:18:22.780Z,8.71
2019-05-02T19:38:52.486Z,7.86
2019-05-02T19:43:58.851Z,9.73
2019-05-02T19:49:06.874Z,7.06
2019-05-02T19:54:07.660Z,8.59
2019-05-02T19:59:16.744Z,7.50
2019-05-02T20:04:17.656Z,7.91
2019-05-02T20:14:32.083Z,6.66
2019-05-02T20:19:38.545Z,7.30
2019-05-02T20:24:49.158Z,18.43
2019-05-02T20:34:58.552Z,9.31
2019-05-02T20:50:18.027Z,5.79
2019-05-02T21:05:38.833Z,6.43
2019-05-02T21:10:45.136Z,7.44
2019-05-02T21:15:52.367Z,6.82
2019-05-02T21:20:59.035Z,6.31
2019-05-02T21:26:05.315Z,9.19
2019-05-02T21:31:12.212Z,9.77
2019-05-02T21:36:18.353Z,8.41
2019-05-02T21:41:24.796Z,10.73
2019-05-02T21:46:31.770Z,8.51
2019-05-02T21:51:38.215Z,4.85
2019-05-02T21:56:44.551Z,8.44
2019-05-02T22:01:51.895Z,8.79
2019-05-02T22:06:58.551Z,9.80
2019-05-02T22:12:04.984Z,9.29
2019-05-02T22:22:19.481Z,6.26
2019-05-02T22:27:25.652Z,6.58
2019-05-02T22:37:38.536Z,8.07
2019-05-02T22:42:45.439Z,7.80
2019-05-02T22:47:52.077Z,9.38
2019-05-02T22:52:58.395Z,9.21
2019-05-02T22:58:04.649Z,8.15
2019-05-02T23:03:12.539Z,12.38
2019-05-02T23:08:21.872Z,10.38
2019-05-02T23:13:28.431Z,9.05
2019-05-02T23:18:35.042Z,11.69
2019-05-02T23:23:41.843Z,7.92
2019-05-02T23:28:48.066Z,8.89
2019-05-02T23:33:54.653Z,8.54
2019-05-02T23:39:01.871Z,7.96
2019-05-02T23:44:08.125Z,9.96
2019-05-02T23:49:14.927Z,10.65
2019-05-02T23:54:22.051Z,16.11
2019-05-02T23:59:28.501Z,6.53
